Campbellton, TX (78008)

1:59 PM CDT on April 30, 2017 (GMT -0500)
MUR198 | | Change Station

Elev 301 ft 28.86 °N, 98.35 °W | Updated 16 hours ago

Clear
Clear
80.0 °F
Feels Like 80.0 °F
N
-
Wind Variable Wind from North

Today
High -- | Low -- °F
--% Chance of Precip.
Yesterday
High -- | Low -- °F
Precip. -- in
Pressure 29.96 in
Visibility 10.0 miles
Clouds Clear
Dew Point Not available.
Humidity Not available.
Rainfall 0.32 in
Snow Depth Not available.
6:52 AM 8:08 PM
Waxing Crescent, 25% visible
METAR KPEZ 301835Z AUTO 29017G24KT 10SM CLR 25/02 A2996 RMK AO2 T02500015
Pressure 29.96 in
Visibility 10.0 miles
Clouds Clear
Dew Point Not available.
Humidity Not available.
Rainfall 0.32 in
Snow Depth Not available.
6:52 AM 8:08 PM
Waxing Crescent, 25% visible
METAR KPEZ 301835Z AUTO 29017G24KT 10SM CLR 25/02 A2996 RMK AO2 T02500015

Get Severe Weather Alerts

Thanks for signing up!

Be on the lookout for a verification email in your inbox.

You'll start receiving the daily forecast at 8 AM.

×

10-Day Weather Forecast

Almanac

Astronomy

Apr. 30, 2017 Rise Set
Actual Time
Civil Twilight
Nautical Twilight
Astronomical Twilight
Moon
Length of Visible Light
Length of Day
Tomorrow will be .
, % of the Moon is Illuminated

Today's Extremes

State Highs State Lows

Community

WunderPhotos

WunderBlog® & News

Nearby

Air Quality

  Air Quality AQ Index Pollutant
Not available.

Snow Depth

Station Depth Elevation

Earthquake Activity

City Distance Mag. Time & Date
Minimum magnitude displayed is 2.5.

Coastal Water Temperatures

Place Temperature

Stations

Nearby Weather Stations

Station Location Temp. Windchill Dew Point Humidity Wind Precip. Elev Updated Type
                   

Watches & Warnings

There are currently no watches in effect.